createdAt,value
2023-02-11T00:01:17.126Z,-0.70
2023-02-11T00:03:43.882Z,-0.70
2023-02-11T00:06:11.421Z,-0.80
2023-02-11T00:08:40.137Z,-0.80
2023-02-11T00:11:07.606Z,-0.90
2023-02-11T00:13:34.400Z,-0.90
2023-02-11T00:16:07.502Z,-1.00
2023-02-11T00:18:34.291Z,-1.20
2023-02-11T00:21:05.370Z,-1.00
2023-02-11T00:23:31.990Z,-0.90
2023-02-11T00:25:58.700Z,-0.80
2023-02-11T00:28:25.471Z,-0.80
2023-02-11T05:33:08.675Z,-2.30
2023-02-11T05:35:35.325Z,-2.50
2023-02-11T05:38:01.961Z,-2.40
2023-02-11T05:40:28.580Z,-2.50
2023-02-11T05:42:55.300Z,-2.50
2023-02-11T05:45:21.923Z,-2.50
2023-02-11T05:47:48.593Z,-2.40
2023-02-11T05:50:15.409Z,-2.40
2023-02-11T05:52:42.077Z,-2.50
2023-02-11T05:55:08.909Z,-2.40
2023-02-11T05:57:35.552Z,-2.30
2023-02-11T06:00:03.059Z,-2.30
2023-02-11T06:02:29.760Z,-2.30
2023-02-11T06:04:56.464Z,-2.20
2023-02-11T06:07:23.204Z,-2.10
2023-02-11T06:09:49.869Z,-2.30
2023-02-11T06:12:16.462Z,-2.40
2023-02-11T06:14:43.082Z,-2.40
2023-02-11T06:17:09.822Z,-2.50
2023-02-11T06:19:36.545Z,-2.70
2023-02-11T06:22:03.291Z,-2.60
2023-02-11T06:24:54.657Z,-2.80
2023-02-11T06:27:17.481Z,-3.00
2023-02-11T06:29:44.380Z,-3.10
2023-02-11T06:32:28.106Z,-3.20
2023-02-11T06:34:57.864Z,-3.00
2023-02-11T06:37:24.501Z,-2.90
2023-02-11T06:39:51.223Z,-2.90
2023-02-11T06:42:17.810Z,-2.90
2023-02-11T06:44:44.597Z,-2.90
2023-02-11T06:47:11.339Z,-3.00
2023-02-11T06:49:37.918Z,-3.00
2023-02-11T06:52:04.645Z,-2.80
2023-02-11T06:54:31.242Z,-2.80
2023-02-11T06:56:57.925Z,-2.80
2023-02-11T06:59:24.596Z,-2.70
2023-02-11T07:01:51.259Z,-2.60
2023-02-11T07:04:17.930Z,-2.60
2023-02-11T07:06:44.556Z,-2.50
2023-02-11T07:09:11.313Z,-2.50
2023-02-11T07:11:37.944Z,-2.60
2023-02-11T07:14:08.229Z,-2.60
2023-02-11T07:16:35.486Z,-2.60
2023-02-11T07:19:02.159Z,-2.50
2023-02-11T07:21:28.801Z,-2.60
2023-02-11T07:23:55.461Z,-2.40
2023-02-11T07:26:24.127Z,-2.20
2023-02-11T07:28:51.413Z,-2.30
2023-02-11T07:31:26.649Z,-2.20
2023-02-11T07:33:55.354Z,-2.10
2023-02-11T07:36:22.950Z,-1.90
2023-02-11T07:38:50.144Z,-1.70
2023-02-11T07:41:20.020Z,-1.40
2023-02-11T07:43:47.130Z,-1.00
2023-02-11T07:46:20.494Z,-0.40
2023-02-11T07:48:47.468Z,-0.20
2023-02-11T07:51:18.686Z,-0.10
2023-02-11T07:53:46.280Z,-0.40
2023-02-11T07:56:14.527Z,-0.30
2023-02-11T07:58:42.960Z,-0.20
2023-02-11T08:01:22.494Z,-0.20
2023-02-11T08:03:49.266Z,0.00
2023-02-11T08:06:17.597Z,0.10
2023-02-11T08:08:44.709Z,0.10
2023-02-11T08:11:20.924Z,0.30
2023-02-11T08:13:48.494Z,0.40
2023-02-11T08:16:29.910Z,0.40
2023-02-11T08:18:59.084Z,0.40
2023-02-11T08:21:26.187Z,0.60
2023-02-11T08:23:53.176Z,0.80
2023-02-11T08:26:23.212Z,1.30
2023-02-11T08:28:51.845Z,1.70
2023-02-11T08:31:22.182Z,2.00
2023-02-11T08:33:49.425Z,2.30
2023-02-11T08:36:25.140Z,2.60
2023-02-11T08:38:57.080Z,3.10
2023-02-11T08:41:27.301Z,3.90
2023-02-11T08:43:53.994Z,5.10
2023-02-11T08:46:20.927Z,6.10
2023-02-11T08:48:47.910Z,6.40
2023-02-11T08:51:19.817Z,6.30
2023-02-11T08:53:46.991Z,6.30
2023-02-11T08:56:20.425Z,6.20
2023-02-11T08:58:47.851Z,5.70
2023-02-11T09:01:23.351Z,5.10
2023-02-11T09:03:50.150Z,5.00
2023-02-11T09:06:18.533Z,4.90
2023-02-11T09:08:49.296Z,4.70
2023-02-11T09:11:18.348Z,4.50
2023-02-11T09:13:46.052Z,4.50
2023-02-11T09:16:21.808Z,4.50
2023-02-11T09:18:49.046Z,4.40
2023-02-11T09:21:17.548Z,4.40
2023-02-11T09:23:44.855Z,4.60
2023-02-11T09:26:21.447Z,4.80
2023-02-11T09:28:49.157Z,4.90
2023-02-11T09:31:18.714Z,5.00
2023-02-11T09:33:50.495Z,5.00
2023-02-11T09:36:19.484Z,5.30
2023-02-11T09:38:46.671Z,5.90
2023-02-11T09:41:23.557Z,7.60
2023-02-11T09:43:59.250Z,9.90
2023-02-11T09:46:31.293Z,12.00
2023-02-11T09:48:59.511Z,13.60
2023-02-11T09:51:50.016Z,13.80
2023-02-11T09:54:52.790Z,14.90
2023-02-11T09:57:28.337Z,16.00
2023-02-11T09:59:57.236Z,15.50
2023-02-11T10:02:23.798Z,15.70
2023-02-11T10:05:16.013Z,16.70
2023-02-11T10:07:54.464Z,16.40
2023-02-11T10:10:35.532Z,17.40
2023-02-11T10:13:02.084Z,18.60
2023-02-11T10:15:31.411Z,18.80
2023-02-11T10:18:43.965Z,18.10
2023-02-11T10:21:28.523Z,16.10
2023-02-11T10:23:59.152Z,14.80
2023-02-11T10:26:29.567Z,13.60
2023-02-11T10:28:59.791Z,11.90
2023-02-11T10:31:35.760Z,11.60
2023-02-11T10:34:09.678Z,11.10
2023-02-11T10:36:38.830Z,10.80
2023-02-11T10:39:18.757Z,10.90
2023-02-11T10:42:05.243Z,11.20
2023-02-11T10:44:41.405Z,11.80
2023-02-11T10:47:20.625Z,12.30
2023-02-11T10:49:47.702Z,12.40
2023-02-11T10:52:24.894Z,12.20
2023-02-11T10:55:09.668Z,12.10
2023-02-11T10:58:03.008Z,12.40
2023-02-11T11:00:40.672Z,12.50
2023-02-11T11:03:22.942Z,13.20
2023-02-11T11:06:01.965Z,13.30
2023-02-11T11:08:58.050Z,13.10
2023-02-11T11:11:26.284Z,13.00
2023-02-11T11:13:52.864Z,14.60
2023-02-11T11:16:35.099Z,14.90
2023-02-11T11:19:07.534Z,15.80
2023-02-11T11:21:43.741Z,16.40
2023-02-11T11:24:33.499Z,18.30
2023-02-11T11:27:03.588Z,19.40
2023-02-11T11:29:43.152Z,18.90
2023-02-11T11:32:32.259Z,18.60
2023-02-11T11:35:05.985Z,17.60
2023-02-11T11:37:36.116Z,17.40
2023-02-11T11:40:09.963Z,17.70
2023-02-11T11:42:38.655Z,18.10
2023-02-11T11:45:19.518Z,18.20
2023-02-11T11:47:53.133Z,18.40
2023-02-11T11:50:50.129Z,17.80
2023-02-11T11:54:02.441Z,18.50
2023-02-11T11:56:34.051Z,19.10
2023-02-11T11:59:02.370Z,19.30
2023-02-11T12:01:59.780Z,19.10
2023-02-11T12:04:32.411Z,18.40
2023-02-11T12:07:13.777Z,18.50
2023-02-11T12:09:55.767Z,18.10
2023-02-11T12:12:34.362Z,18.80
2023-02-11T12:15:43.841Z,19.10
2023-02-11T12:18:53.405Z,19.10
2023-02-11T12:21:41.670Z,19.10
2023-02-11T12:24:37.073Z,17.50
2023-02-11T12:27:28.232Z,16.60
2023-02-11T12:29:57.966Z,15.30
2023-02-11T12:32:39.179Z,14.80
2023-02-11T12:35:33.838Z,13.90
2023-02-11T12:38:18.850Z,13.70
2023-02-11T12:41:05.319Z,14.00
2023-02-11T12:43:37.580Z,13.50
2023-02-11T12:46:17.023Z,13.00
2023-02-11T12:49:04.876Z,12.60
2023-02-11T12:51:34.546Z,11.90
2023-02-11T12:54:10.171Z,12.10
2023-02-11T12:56:52.072Z,12.40
2023-02-11T12:59:44.005Z,11.80
2023-02-11T13:02:48.614Z,11.80
2023-02-11T13:05:33.700Z,12.20
2023-02-11T13:08:08.905Z,12.70
2023-02-11T13:10:38.350Z,13.00
2023-02-11T13:13:18.854Z,13.10
2023-02-11T13:15:53.583Z,12.80
2023-02-11T13:19:01.961Z,12.90
2023-02-11T13:21:55.913Z,13.40
2023-02-11T13:24:31.255Z,13.70
2023-02-11T13:27:22.858Z,13.70
2023-02-11T13:30:12.682Z,13.50
2023-02-11T13:32:54.425Z,13.30
2023-02-11T13:35:35.841Z,13.30
2023-02-11T13:38:21.775Z,13.20
2023-02-11T13:41:16.552Z,13.10
2023-02-11T13:43:44.218Z,13.70
2023-02-11T13:46:15.368Z,14.20
2023-02-11T13:48:53.867Z,14.20
2023-02-11T13:51:40.310Z,13.70
2023-02-11T13:54:09.006Z,13.30
2023-02-11T13:56:37.255Z,13.30
2023-02-11T13:59:33.539Z,13.10
2023-02-11T14:02:18.618Z,13.40
2023-02-11T14:05:38.346Z,13.80
2023-02-11T14:08:29.339Z,14.00
2023-02-11T14:11:24.022Z,13.80
2023-02-11T14:13:50.648Z,13.80
2023-02-11T14:16:36.371Z,13.90
2023-02-11T14:19:03.852Z,14.30
2023-02-11T14:21:34.438Z,14.60
2023-02-11T14:24:12.819Z,15.20
2023-02-11T14:27:11.313Z,15.40
2023-02-11T14:30:04.950Z,15.50
2023-02-11T14:32:59.859Z,15.30
2023-02-11T14:35:47.837Z,15.10
2023-02-11T14:38:21.375Z,15.00
2023-02-11T14:40:55.084Z,14.10
2023-02-11T14:43:29.644Z,13.50
2023-02-11T14:45:58.203Z,13.20
2023-02-11T14:48:35.151Z,13.10
2023-02-11T14:51:05.171Z,12.80
2023-02-11T14:53:33.178Z,12.50
2023-02-11T14:55:59.845Z,12.00
2023-02-11T14:58:27.962Z,11.90
2023-02-11T15:01:02.154Z,11.90
2023-02-11T15:03:43.242Z,12.00
2023-02-11T15:06:21.303Z,12.20
2023-02-11T15:09:16.583Z,12.30
2023-02-11T15:11:46.358Z,12.30
2023-02-11T15:14:29.939Z,12.00
2023-02-11T15:17:03.263Z,11.90
2023-02-11T15:19:35.662Z,11.40
2023-02-11T15:22:05.963Z,11.20
2023-02-11T15:24:35.479Z,10.90
2023-02-11T15:27:16.055Z,10.80
2023-02-11T15:29:46.742Z,10.50
2023-02-11T15:32:18.804Z,10.40
2023-02-11T15:34:47.052Z,10.30
2023-02-11T15:37:19.581Z,10.00
2023-02-11T15:39:46.212Z,9.70
2023-02-11T15:42:19.632Z,9.70
2023-02-11T15:44:52.291Z,9.60
2023-02-11T15:47:29.413Z,9.50
2023-02-11T15:49:56.051Z,9.60
2023-02-11T15:52:26.400Z,9.50
2023-02-11T15:54:55.880Z,9.50
2023-02-11T15:57:23.123Z,9.30
2023-02-11T15:59:52.957Z,9.00
2023-02-11T16:02:24.469Z,9.00
2023-02-11T16:04:59.284Z,9.00
2023-02-11T16:07:44.017Z,8.80
2023-02-11T16:10:25.027Z,8.70
2023-02-11T16:12:54.741Z,8.60
2023-02-11T16:15:33.771Z,8.50
2023-02-11T16:18:12.564Z,8.40
2023-02-11T16:20:39.847Z,8.30
2023-02-11T16:23:07.775Z,8.20
2023-02-11T16:25:37.845Z,8.30
2023-02-11T16:28:05.662Z,8.20
2023-02-11T16:30:36.455Z,8.10
2023-02-11T16:33:04.148Z,7.80
2023-02-11T16:35:31.118Z,7.70
2023-02-11T16:37:57.736Z,7.50
2023-02-11T16:40:24.414Z,7.40
2023-02-11T16:42:53.204Z,7.20
2023-02-11T16:45:19.850Z,7.10
2023-02-11T16:47:46.775Z,7.00
2023-02-11T16:50:22.162Z,7.00
2023-02-11T16:52:49.103Z,7.00
2023-02-11T16:55:15.877Z,7.00
2023-02-11T16:57:42.588Z,7.00
2023-02-11T17:00:10.313Z,7.00
2023-02-11T17:02:38.330Z,7.10
2023-02-11T17:05:07.858Z,6.90
2023-02-11T17:07:34.524Z,6.90
2023-02-11T17:10:01.195Z,6.90
2023-02-11T17:12:27.951Z,6.70
2023-02-11T17:14:54.939Z,6.30
2023-02-11T17:17:23.568Z,6.20
2023-02-11T17:19:51.079Z,6.00
2023-02-11T17:22:18.461Z,5.90
2023-02-11T17:24:45.080Z,5.80
2023-02-11T17:27:13.849Z,5.90
2023-02-11T17:29:40.559Z,5.70
2023-02-11T17:32:07.257Z,5.70
2023-02-11T17:34:33.972Z,5.60
2023-02-11T17:37:03.049Z,5.50
2023-02-11T17:39:29.832Z,5.40
2023-02-11T17:41:56.507Z,5.30
2023-02-11T17:44:23.139Z,5.30
2023-02-11T17:46:49.873Z,5.10
2023-02-11T17:49:16.644Z,4.90
2023-02-11T17:51:43.833Z,4.90
2023-02-11T17:54:14.120Z,4.90
2023-02-11T17:56:41.876Z,4.90
2023-02-11T17:59:09.736Z,5.00
2023-02-11T18:01:37.980Z,5.00
2023-02-11T18:04:05.412Z,4.80
2023-02-11T18:06:34.002Z,4.50
2023-02-11T18:09:02.338Z,4.60
2023-02-11T18:11:30.784Z,4.60
2023-02-11T18:14:02.121Z,4.50
2023-02-11T18:16:30.034Z,4.50
2023-02-11T18:18:58.845Z,4.50
2023-02-11T18:21:25.983Z,4.40
2023-02-11T18:23:52.832Z,4.40
2023-02-11T18:26:21.239Z,4.50
2023-02-11T18:28:48.584Z,4.30
2023-02-11T18:31:17.183Z,4.30
2023-02-11T18:33:44.600Z,4.30
2023-02-11T18:36:13.778Z,4.30
2023-02-11T18:38:42.106Z,4.30
2023-02-11T18:41:09.170Z,4.20
2023-02-11T18:43:36.675Z,4.10
2023-02-11T18:46:08.497Z,4.10
2023-02-11T18:48:35.361Z,3.90
2023-02-11T18:51:02.148Z,3.80
2023-02-11T18:53:28.918Z,3.60
2023-02-11T18:55:55.682Z,3.50
2023-02-11T18:58:22.535Z,3.60
2023-02-11T19:00:50.630Z,3.70
2023-02-11T19:03:17.613Z,3.60
2023-02-11T19:05:47.347Z,3.70
2023-02-11T19:08:14.716Z,3.70
2023-02-11T19:10:43.125Z,3.70
2023-02-11T19:13:10.203Z,3.60
2023-02-11T19:15:42.120Z,3.40
2023-02-11T19:18:09.028Z,3.40
2023-02-11T19:20:35.808Z,3.40
2023-02-11T19:23:02.518Z,3.20
2023-02-11T19:25:29.211Z,3.30
2023-02-11T19:27:55.924Z,3.10
2023-02-11T19:30:22.582Z,3.20
2023-02-11T19:32:53.247Z,3.00
2023-02-11T19:35:20.346Z,3.00
2023-02-11T19:37:47.317Z,3.00
2023-02-11T19:40:15.545Z,2.80
2023-02-11T19:42:42.510Z,2.90
2023-02-11T19:45:09.836Z,2.80
2023-02-11T19:47:36.970Z,2.90
2023-02-11T19:50:05.793Z,2.90
2023-02-11T19:52:32.490Z,2.60
2023-02-11T19:55:00.714Z,2.60
2023-02-11T19:57:27.406Z,2.60
2023-02-11T19:59:55.017Z,2.60
2023-02-11T20:02:21.891Z,2.50
2023-02-11T20:04:48.876Z,2.40
2023-02-11T20:07:15.734Z,2.40
2023-02-11T20:09:42.665Z,2.50
2023-02-11T20:12:09.837Z,2.50
2023-02-11T20:14:36.694Z,2.50
2023-02-11T20:17:03.565Z,2.50
2023-02-11T20:19:30.681Z,2.50
2023-02-11T20:21:57.535Z,2.20
2023-02-11T20:24:25.384Z,2.20
2023-02-11T20:26:55.753Z,2.20
2023-02-11T20:29:23.725Z,2.20
2023-02-11T20:31:50.712Z,2.30
2023-02-11T20:34:18.175Z,2.30
2023-02-11T20:36:51.830Z,2.30
2023-02-11T20:39:19.246Z,2.30
2023-02-11T20:41:46.194Z,2.20
2023-02-11T20:44:13.234Z,2.10
2023-02-11T20:46:42.782Z,2.10
2023-02-11T20:49:19.310Z,2.10
2023-02-11T20:51:46.767Z,2.10
2023-02-11T20:54:18.520Z,2.00
2023-02-11T20:56:47.970Z,2.10
2023-02-11T20:59:16.561Z,2.00
2023-02-11T21:01:47.988Z,2.20
2023-02-11T21:04:18.144Z,2.20
2023-02-11T21:06:50.467Z,2.20
2023-02-11T21:09:21.989Z,2.30
2023-02-11T21:11:51.552Z,2.40
2023-02-11T21:14:19.103Z,2.20
2023-02-11T21:16:47.298Z,2.00
2023-02-11T21:19:14.188Z,2.00
2023-02-11T21:21:40.921Z,1.90
2023-02-11T21:24:09.343Z,1.90
2023-02-11T21:26:36.884Z,1.90
2023-02-11T21:29:05.850Z,1.90
2023-02-11T21:31:34.710Z,1.90
2023-02-11T21:34:01.807Z,2.00
2023-02-11T21:36:29.758Z,1.90
2023-02-11T21:38:56.547Z,2.00
2023-02-11T21:41:24.749Z,1.70
2023-02-11T21:43:52.047Z,1.60
2023-02-11T21:46:19.437Z,1.70
2023-02-11T21:48:46.499Z,1.70
2023-02-11T21:51:18.407Z,1.50
2023-02-11T21:53:45.640Z,1.30
2023-02-11T21:56:15.050Z,1.20
2023-02-11T21:58:42.209Z,1.40
2023-02-11T22:01:18.038Z,1.30
2023-02-11T22:03:46.045Z,1.30
2023-02-11T22:06:21.212Z,1.30
2023-02-11T22:08:50.675Z,1.40
2023-02-11T22:11:17.615Z,1.50
2023-02-11T22:13:45.650Z,1.60
2023-02-11T22:16:15.355Z,1.40
2023-02-11T22:18:44.576Z,1.50
2023-02-11T22:21:14.483Z,1.50
2023-02-11T22:23:41.650Z,1.30
2023-02-11T22:26:11.131Z,1.10
2023-02-11T22:28:40.513Z,1.10
2023-02-11T22:31:12.860Z,1.00
2023-02-11T22:33:39.765Z,1.20
2023-02-11T22:36:10.576Z,1.30
2023-02-11T22:38:37.211Z,1.40
2023-02-11T22:41:09.625Z,1.40
2023-02-11T22:43:37.156Z,1.30
2023-02-11T22:46:05.731Z,1.20
2023-02-11T22:48:33.402Z,1.00
2023-02-11T22:51:32.643Z,0.70
2023-02-11T22:54:02.008Z,0.70
2023-02-11T22:56:31.021Z,1.00
2023-02-11T22:58:59.829Z,1.20
2023-02-11T23:01:27.343Z,1.00
2023-02-11T23:03:54.081Z,1.00
2023-02-11T23:06:20.775Z,1.20
2023-02-11T23:08:47.612Z,1.40
2023-02-11T23:11:20.183Z,1.50
2023-02-11T23:13:48.272Z,1.50
2023-02-11T23:16:17.862Z,1.60
2023-02-11T23:18:47.001Z,1.80
2023-02-11T23:21:23.349Z,1.90
2023-02-11T23:23:58.185Z,2.00
2023-02-11T23:26:26.045Z,1.80
2023-02-11T23:28:53.001Z,1.80
2023-02-11T23:31:28.841Z,1.80
2023-02-11T23:33:55.907Z,1.80
2023-02-11T23:36:23.658Z,1.80
2023-02-11T23:38:51.113Z,1.80
2023-02-11T23:41:17.990Z,1.80
2023-02-11T23:43:48.342Z,1.80
2023-02-11T23:46:15.056Z,1.70
2023-02-11T23:48:41.838Z,1.50
2023-02-11T23:51:11.843Z,1.50
2023-02-11T23:53:39.261Z,1.40
2023-02-11T23:56:27.071Z,1.40
2023-02-11T23:58:56.869Z,1.40
